createdAt,value
2018-11-28T00:01:12.195Z,-1.60
2018-11-28T00:06:14.535Z,-1.58
2018-11-28T00:11:16.896Z,-1.57
2018-11-28T00:16:19.218Z,-1.53
2018-11-28T00:21:21.530Z,-1.57
2018-11-28T00:26:24.916Z,-1.59
2018-11-28T00:31:27.284Z,-1.52
2018-11-28T00:36:29.614Z,-1.56
2018-11-28T00:41:38.625Z,-1.53
2018-11-28T00:46:40.954Z,-1.54
2018-11-28T00:51:43.333Z,-1.54
2018-11-28T00:56:45.656Z,-1.50
2018-11-28T01:01:48.063Z,-1.56
2018-11-28T01:06:50.411Z,-1.60
2018-11-28T01:11:52.716Z,-1.60
2018-11-28T01:16:55.027Z,-1.63
2018-11-28T01:21:57.408Z,-1.60
2018-11-28T01:26:59.830Z,-1.61
2018-11-28T01:32:02.145Z,-1.56
2018-11-28T01:37:04.522Z,-1.55
2018-11-28T01:42:06.834Z,-1.59
2018-11-28T01:47:09.238Z,-1.56
2018-11-28T01:52:11.529Z,-1.56
2018-11-28T01:57:13.892Z,-1.53
2018-11-28T02:02:17.239Z,-1.50
2018-11-28T02:07:19.559Z,-1.51
2018-11-28T02:12:21.911Z,-1.51
2018-11-28T02:17:24.210Z,-1.48
2018-11-28T02:22:26.509Z,-1.47
2018-11-28T02:27:28.979Z,-1.43
2018-11-28T02:32:31.281Z,-1.38
2018-11-28T02:37:33.591Z,-1.37
2018-11-28T02:42:35.950Z,-1.38
2018-11-28T02:47:38.365Z,-1.37
2018-11-28T02:52:40.691Z,-1.43
2018-11-28T02:57:44.023Z,-1.47
2018-11-28T03:02:46.365Z,-1.48
2018-11-28T03:07:48.838Z,-1.57
2018-11-28T03:12:51.547Z,-1.60
2018-11-28T03:17:53.854Z,-1.63
2018-11-28T03:22:56.147Z,-1.74
2018-11-28T03:27:58.644Z,-1.76
2018-11-28T03:33:01.002Z,-1.74
2018-11-28T03:38:03.432Z,-1.79
2018-11-28T03:43:06.189Z,-1.82
2018-11-28T03:48:08.626Z,-1.86
2018-11-28T03:53:11.656Z,-1.85
2018-11-28T03:58:14.462Z,-1.84
2018-11-28T04:03:18.184Z,-1.85
2018-11-28T04:08:20.608Z,-1.82
2018-11-28T04:13:23.029Z,-1.81
2018-11-28T04:18:25.615Z,-1.84
2018-11-28T04:23:27.922Z,-1.90
2018-11-28T04:28:30.306Z,-1.88
2018-11-28T04:33:32.663Z,-1.93
2018-11-28T04:38:34.971Z,-1.93
2018-11-28T04:43:37.379Z,-1.93
2018-11-28T04:48:39.690Z,-1.93
2018-11-28T04:53:42.013Z,-1.93
2018-11-28T04:58:44.379Z,-1.92
2018-11-28T05:03:46.764Z,-1.93
2018-11-28T05:08:49.205Z,-1.96
2018-11-28T05:13:51.529Z,-1.96
2018-11-28T05:18:53.877Z,-1.96
2018-11-28T05:23:56.200Z,-1.97
2018-11-28T05:28:58.610Z,-1.96
2018-11-28T05:34:02.083Z,-1.93
2018-11-28T05:39:05.409Z,-1.95
2018-11-28T05:44:07.769Z,-2.00
2018-11-28T05:49:15.023Z,-1.98
2018-11-28T05:54:12.485Z,-1.98
2018-11-28T05:59:15.874Z,-2.01
2018-11-28T06:04:18.615Z,-2.04
2018-11-28T06:09:20.938Z,-2.05
2018-11-28T06:14:23.265Z,-2.05
2018-11-28T06:19:25.698Z,-2.04
2018-11-28T06:24:28.017Z,-2.09
2018-11-28T06:29:30.384Z,-2.13
2018-11-28T06:34:32.735Z,-2.20
2018-11-28T06:39:35.065Z,-2.23
2018-11-28T06:44:37.564Z,-2.28
2018-11-28T06:49:39.885Z,-2.39
2018-11-28T06:54:42.262Z,-2.44
2018-11-28T06:59:44.657Z,-2.48
2018-11-28T07:04:47.960Z,-2.52
2018-11-28T07:09:49.634Z,-2.54
2018-11-28T07:14:51.958Z,-2.51
2018-11-28T07:19:54.294Z,-2.49
2018-11-28T07:24:56.617Z,-2.47
2018-11-28T07:29:58.957Z,-2.46
2018-11-28T07:35:01.411Z,-2.45
2018-11-28T07:40:08.633Z,-2.37
2018-11-28T07:45:11.569Z,-2.27
2018-11-28T07:50:14.433Z,-2.18
2018-11-28T07:55:16.736Z,-2.09
2018-11-28T08:00:19.117Z,-2.00
2018-11-28T08:05:21.444Z,-1.91
2018-11-28T08:10:24.581Z,-1.79
2018-11-28T08:15:27.016Z,-1.67
2018-11-28T08:20:29.371Z,-1.58
2018-11-28T08:25:31.917Z,-1.47
2018-11-28T08:30:34.339Z,-1.34
2018-11-28T08:35:36.739Z,-1.25
2018-11-28T08:40:39.076Z,-1.14
2018-11-28T08:45:41.418Z,-1.03
2018-11-28T08:50:43.768Z,-0.92
2018-11-28T08:55:46.097Z,-0.79
2018-11-28T09:00:48.521Z,-0.68
2018-11-28T09:05:51.508Z,-0.58
2018-11-28T09:10:55.023Z,-0.46
2018-11-28T09:15:57.365Z,-0.36
2018-11-28T09:20:59.691Z,-0.22
2018-11-28T09:26:02.022Z,-0.08
2018-11-28T09:31:04.426Z,0.03
2018-11-28T09:36:06.839Z,0.11
2018-11-28T09:41:09.159Z,0.26
2018-11-28T09:46:11.486Z,0.34
2018-11-28T09:51:13.825Z,0.44
2018-11-28T09:56:16.146Z,0.52
2018-11-28T10:01:18.530Z,0.66
2018-11-28T10:06:20.859Z,0.88
2018-11-28T10:11:23.174Z,1.05
2018-11-28T10:16:25.484Z,1.13
2018-11-28T10:21:27.797Z,1.08
2018-11-28T10:26:30.489Z,1.11
2018-11-28T10:31:32.848Z,1.24
2018-11-28T10:36:35.164Z,1.30
2018-11-28T10:41:37.479Z,1.42
2018-11-28T10:46:39.835Z,1.55
2018-11-28T10:51:42.369Z,1.65
2018-11-28T10:56:44.701Z,1.72
2018-11-28T11:01:56.463Z,1.85
2018-11-28T11:07:05.080Z,1.91
2018-11-28T11:12:12.015Z,1.94
2018-11-28T11:17:14.396Z,1.94
2018-11-28T11:22:16.765Z,1.96
2018-11-28T11:27:19.081Z,2.06
2018-11-28T11:32:21.446Z,1.96
2018-11-28T11:37:23.822Z,1.95
2018-11-28T11:42:26.117Z,1.88
2018-11-28T11:47:28.429Z,1.88
2018-11-28T11:52:30.884Z,1.90
2018-11-28T11:57:34.305Z,1.98
2018-11-28T12:02:36.757Z,1.94
2018-11-28T12:07:39.114Z,2.03
2018-11-28T12:12:41.456Z,2.11
2018-11-28T12:17:46.078Z,2.12
2018-11-28T12:22:48.401Z,2.13
2018-11-28T12:27:50.720Z,2.11
2018-11-28T12:32:53.216Z,2.21
2018-11-28T12:37:55.605Z,2.18
2018-11-28T12:42:58.197Z,2.25
2018-11-28T12:48:00.603Z,2.51
2018-11-28T12:53:03.075Z,2.63
2018-11-28T12:58:08.030Z,2.76
2018-11-28T13:03:11.912Z,2.86
2018-11-28T13:08:14.628Z,2.70
2018-11-28T13:13:18.089Z,2.69
2018-11-28T13:18:19.350Z,2.95
2018-11-28T13:23:21.730Z,3.10
2018-11-28T13:28:24.068Z,3.08
2018-11-28T13:33:26.417Z,3.02
2018-11-28T13:38:28.716Z,2.95
2018-11-28T13:43:31.132Z,2.97
2018-11-28T13:48:33.541Z,2.47
2018-11-28T13:53:35.895Z,2.08
2018-11-28T13:58:38.266Z,1.81
2018-11-28T14:03:40.732Z,1.59
2018-11-28T14:08:43.088Z,1.46
2018-11-28T14:13:45.459Z,1.26
2018-11-28T14:18:47.809Z,1.16
2018-11-28T14:23:50.140Z,1.08
2018-11-28T14:28:52.565Z,0.96
2018-11-28T14:33:54.956Z,0.90
2018-11-28T14:38:57.434Z,0.85
2018-11-28T14:43:59.807Z,0.77
2018-11-28T14:49:02.186Z,0.70
2018-11-28T14:54:04.641Z,0.57
2018-11-28T14:59:06.999Z,0.44
2018-11-28T15:04:09.488Z,0.34
2018-11-28T15:09:17.721Z,0.18
2018-11-28T15:14:20.053Z,0.04
2018-11-28T15:19:22.477Z,-0.07
2018-11-28T15:24:24.801Z,-0.18
2018-11-28T15:29:27.161Z,-0.29
2018-11-28T15:34:29.655Z,-0.33
2018-11-28T15:39:31.990Z,-0.40
2018-11-28T15:44:34.772Z,-0.48
2018-11-28T15:49:37.223Z,-0.56
2018-11-28T15:54:41.237Z,-0.57
2018-11-28T15:59:43.649Z,-0.66
2018-11-28T16:04:46.035Z,-0.72
2018-11-28T16:09:55.520Z,-0.77
2018-11-28T16:14:58.417Z,-0.81
2018-11-28T16:20:01.832Z,-0.88
2018-11-28T16:25:10.171Z,-0.94
2018-11-28T16:30:14.281Z,-0.99
2018-11-28T16:35:17.569Z,-1.02
2018-11-28T16:40:20.873Z,-1.05
2018-11-28T16:45:23.374Z,-1.11
2018-11-28T16:50:25.815Z,-1.17
2018-11-28T16:55:28.219Z,-1.21
2018-11-28T17:00:32.066Z,-1.26
2018-11-28T17:05:34.574Z,-1.26
2018-11-28T17:10:37.193Z,-1.32
2018-11-28T17:15:39.689Z,-1.40
2018-11-28T17:20:43.081Z,-1.42
2018-11-28T17:25:46.081Z,-1.43
2018-11-28T17:30:50.249Z,-1.44
2018-11-28T17:35:52.981Z,-1.46
2018-11-28T17:40:55.941Z,-1.48
2018-11-28T17:45:58.429Z,-1.54
2018-11-28T17:51:00.880Z,-1.56
2018-11-28T17:56:03.338Z,-1.59
2018-11-28T18:01:06.759Z,-1.61
2018-11-28T18:06:09.225Z,-1.68
2018-11-28T18:11:12.865Z,-1.72
2018-11-28T18:16:15.196Z,-1.78
2018-11-28T18:21:17.884Z,-1.75
2018-11-28T18:26:20.185Z,-1.67
2018-11-28T18:31:22.500Z,-1.74
2018-11-28T18:36:24.889Z,-1.75
2018-11-28T18:41:27.324Z,-1.72
2018-11-28T18:46:29.620Z,-1.75
2018-11-28T18:51:32.681Z,-1.70
2018-11-28T18:56:35.045Z,-1.59
2018-11-28T19:01:37.385Z,-1.42
2018-11-28T19:06:39.816Z,-1.38
2018-11-28T19:11:42.541Z,-1.32
2018-11-28T19:16:46.016Z,-1.31
2018-11-28T19:23:59.870Z,-1.21
2018-11-28T19:29:02.374Z,-1.16
2018-11-28T19:34:05.026Z,-1.16
2018-11-28T19:39:09.022Z,-1.17
2018-11-28T19:44:11.401Z,-1.20
2018-11-28T19:49:13.822Z,-1.21
2018-11-28T19:54:16.173Z,-1.13
2018-11-28T19:59:18.458Z,-1.20
2018-11-28T20:04:22.757Z,-1.24
2018-11-28T20:09:25.273Z,-1.20
2018-11-28T20:14:27.836Z,-1.15
2018-11-28T20:19:30.148Z,-1.13
2018-11-28T20:24:32.558Z,-1.15
2018-11-28T20:29:49.787Z,-1.05
2018-11-28T20:34:52.208Z,-0.97
2018-11-28T20:39:54.543Z,-0.97
2018-11-28T20:44:57.191Z,-0.96
2018-11-28T20:49:59.545Z,-0.95
2018-11-28T20:55:02.061Z,-0.92
2018-11-28T21:00:08.301Z,-0.95
2018-11-28T21:05:11.737Z,-0.93
2018-11-28T21:10:20.643Z,-0.90
2018-11-28T21:15:23.448Z,-0.93
2018-11-28T21:20:26.014Z,-0.91
2018-11-28T21:25:28.329Z,-0.81
2018-11-28T21:30:30.637Z,-0.78
2018-11-28T21:35:34.553Z,-0.77
2018-11-28T21:40:36.918Z,-0.78
2018-11-28T21:45:39.397Z,-0.75
2018-11-28T21:50:41.827Z,-0.80
2018-11-28T21:55:44.181Z,-0.77
2018-11-28T22:00:46.609Z,-0.83
2018-11-28T22:05:48.988Z,-0.74
2018-11-28T22:10:51.327Z,-0.86
2018-11-28T22:15:53.616Z,-0.83
2018-11-28T22:20:55.991Z,-0.84
2018-11-28T22:25:58.276Z,-0.82
2018-11-28T22:31:00.585Z,-0.87
2018-11-28T22:36:02.885Z,-0.81
2018-11-28T22:41:05.413Z,-0.90
2018-11-28T22:46:07.718Z,-0.90
2018-11-28T22:51:10.026Z,-0.95
2018-11-28T22:56:12.384Z,-0.97
2018-11-28T23:01:14.805Z,-0.97
2018-11-28T23:06:17.193Z,-1.02
2018-11-28T23:11:19.606Z,-1.02
2018-11-28T23:16:22.056Z,-1.14
2018-11-28T23:21:24.423Z,-1.24
2018-11-28T23:26:26.751Z,-1.30
2018-11-28T23:31:29.082Z,-1.39
2018-11-28T23:36:31.406Z,-1.44
2018-11-28T23:41:33.885Z,-1.43
2018-11-28T23:46:36.205Z,-1.33
2018-11-28T23:51:38.529Z,-1.27
2018-11-28T23:56:40.861Z,-1.32
